Time;durP1;ratioP1;P1;durP2;ratioP2;P2;SDS_P1;SDS_P2;PMS_P1;PMS_P2;Temp;Humidity;BMP_temperature;BMP_pressure;BME280_temperature;BME280_humidity;BME280_pressure;Samples;Min_cycle;Max_cycle;Signal;HPM_P1;HPM_P2
2022/05/08 00:01:58;;;;;;;23.77;19.67;;;;;;;15.61;100.00;96822.56;5104266;27;20549;-48
2022/05/08 00:04:27;;;;;;;23.20;18.65;;;;;;;15.63;100.00;96821.41;5108609;27;20060;-49
2022/05/08 00:06:55;;;;;;;20.65;17.58;;;;;;;15.70;100.00;96816.28;5102212;27;20098;-48
2022/05/08 00:09:25;;;;;;;23.02;18.88;;;;;;;15.73;100.00;96818.59;5102732;27;20552;-44
2022/05/08 00:11:53;;;;;;;24.08;19.02;;;;;;;15.59;100.00;96820.09;5107588;27;20071;-56
2022/05/08 00:14:21;;;;;;;24.13;20.75;;;;;;;15.76;100.00;96810.28;5103983;28;20071;-48
2022/05/08 00:16:50;;;;;;;23.00;18.55;;;;;;;15.75;100.00;96810.44;5111162;27;20064;-50
2022/05/08 00:19:18;;;;;;;23.33;18.75;;;;;;;15.66;100.00;96814.97;5105319;27;20074;-48
2022/05/08 00:21:47;;;;;;;24.52;19.73;;;;;;;15.68;100.00;96812.13;5107151;27;20082;-49
2022/05/08 00:24:15;;;;;;;25.42;20.67;;;;;;;15.54;100.00;96816.25;5107155;27;20094;-51
2022/05/08 00:26:44;;;;;;;25.15;20.42;;;;;;;15.38;100.00;96812.63;5104657;27;20071;-48
2022/05/08 00:29:14;;;;;;;25.38;21.35;;;;;;;15.53;100.00;96809.28;5108015;27;20082;-51
2022/05/08 00:31:43;;;;;;;28.58;22.80;;;;;;;15.55;100.00;96812.59;5105682;27;20063;-45
2022/05/08 00:34:11;;;;;;;28.25;23.60;;;;;;;15.69;100.00;96811.97;5106406;27;20082;-47
2022/05/08 00:36:40;;;;;;;29.02;23.48;;;;;;;15.71;100.00;96809.13;5113644;27;20520;-49
2022/05/08 00:39:08;;;;;;;29.48;23.38;;;;;;;15.70;100.00;96810.97;5105404;27;20422;-45
2022/05/08 00:41:36;;;;;;;28.80;21.98;;;;;;;15.75;100.00;96808.63;5105477;27;20083;-47
2022/05/08 00:44:06;;;;;;;32.10;23.67;;;;;;;15.79;100.00;96809.94;5104022;27;20063;-51
2022/05/08 00:46:35;;;;;;;29.45;23.77;;;;;;;15.71;100.00;96804.63;5101814;28;20765;-46
2022/05/08 00:49:03;;;;;;;30.48;23.42;;;;;;;15.73;100.00;96801.81;5109270;27;20617;-45
2022/05/08 00:51:32;;;;;;;29.20;23.40;;;;;;;15.64;100.00;96798.31;5104151;27;20062;-49
2022/05/08 00:54:02;;;;;;;30.05;24.13;;;;;;;15.82;100.00;96798.97;5106877;27;20082;-51
2022/05/08 00:56:31;;;;;;;27.55;21.85;;;;;;;15.98;100.00;96798.09;5103502;27;20461;-49
2022/05/08 00:59:00;;;;;;;24.05;20.15;;;;;;;15.98;100.00;96803.44;5104157;27;20062;-48
2022/05/08 01:01:29;;;;;;;24.65;20.25;;;;;;;15.95;100.00;96798.44;5103800;27;20505;-49
2022/05/08 01:03:57;;;;;;;23.50;19.47;;;;;;;15.92;100.00;96792.63;5108568;27;20145;-45
2022/05/08 01:06:27;;;;;;;21.75;18.80;;;;;;;15.90;100.00;96796.31;5107171;27;20480;-46
2022/05/08 01:08:55;;;;;;;24.20;19.60;;;;;;;15.86;100.00;96796.78;5104874;27;20067;-46
2022/05/08 01:11:23;;;;;;;26.25;20.88;;;;;;;15.80;100.00;96798.31;5105204;27;20074;-48
2022/05/08 01:13:52;;;;;;;24.48;19.80;;;;;;;15.79;100.00;96793.97;5104508;28;20055;-49
2022/05/08 01:16:21;;;;;;;25.67;19.05;;;;;;;15.69;100.00;96795.16;5103647;28;20083;-51
2022/05/08 01:18:51;;;;;;;22.10;19.15;;;;;;;15.59;100.00;96798.81;5104698;28;20490;-48
2022/05/08 01:21:27;;;;;;;24.00;19.40;;;;;;;15.59;100.00;96798.00;5105907;27;20468;-50
2022/05/08 01:23:57;;;;;;;26.52;20.30;;;;;;;15.57;100.00;96795.47;5103656;27;20063;-48
2022/05/08 01:26:25;;;;;;;25.87;20.53;;;;;;;15.39;100.00;96798.31;5104235;27;20094;-52
2022/05/08 01:28:53;;;;;;;26.88;21.13;;;;;;;15.56;100.00;96798.31;5104219;28;20066;-46
2022/05/08 01:31:22;;;;;;;27.50;20.55;;;;;;;15.57;100.00;96794.66;5101409;27;20525;-46
2022/05/08 01:33:50;;;;;;;25.60;20.58;;;;;;;15.55;100.00;96796.63;5103016;28;20059;-50
2022/05/08 01:36:19;;;;;;;24.08;20.00;;;;;;;15.54;100.00;96795.81;5104448;27;20063;-51
2022/05/08 01:38:47;;;;;;;23.77;18.98;;;;;;;15.53;100.00;96796.81;5104368;27;20063;-51
2022/05/08 01:41:17;;;;;;;23.50;19.08;;;;;;;15.52;100.00;96789.84;5106541;27;20458;-48
2022/05/08 01:43:45;;;;;;;21.67;18.27;;;;;;;15.36;100.00;96795.16;5103937;27;20797;-49
2022/05/08 01:46:13;;;;;;;23.98;19.45;;;;;;;15.18;100.00;96798.00;5105291;27;20527;-50
2022/05/08 01:48:41;;;;;;;22.90;18.75;;;;;;;15.19;100.00;96797.81;5103829;27;20110;-48
2022/05/08 01:51:12;;;;;;;21.65;18.25;;;;;;;15.09;100.00;96802.44;5107887;27;20519;-45
2022/05/08 01:53:41;;;;;;;20.15;17.30;;;;;;;15.02;100.00;96800.63;5106290;27;20122;-51
2022/05/08 01:56:09;;;;;;;22.45;17.25;;;;;;;14.99;100.00;96795.63;5102055;28;20078;-45
2022/05/08 01:58:38;;;;;;;22.05;18.02;;;;;;;15.00;100.00;96802.59;5099939;27;20059;-47
2022/05/08 02:01:09;;;;;;;21.10;17.83;;;;;;;14.94;100.00;96798.78;5101760;28;20082;-49
2022/05/08 02:03:37;;;;;;;;;;;;;;;14.86;100.00;96806.72;5103623;28;20467;-45
2022/05/08 02:06:05;;;;;;;21.10;17.13;;;;;;;14.61;100.00;96808.50;5101139;27;20052;-47
2022/05/08 02:08:34;;;;;;;24.02;18.35;;;;;;;14.75;100.00;96809.69;5102501;27;20071;-45
2022/05/08 02:11:03;;;;;;;22.27;17.80;;;;;;;14.52;100.00;96806.78;5101015;28;20485;-49
2022/05/08 02:13:31;;;;;;;23.00;19.13;;;;;;;14.55;100.00;96814.44;5098445;28;20063;-49
2022/05/08 02:16:02;;;;;;;24.38;19.80;;;;;;;14.72;100.00;96808.19;5103750;28;20105;-45
2022/05/08 02:18:30;;;;;;;23.25;19.48;;;;;;;14.83;100.00;96815.88;5104765;28;20039;-48
2022/05/08 02:21:09;;;;;;;23.83;19.48;;;;;;;14.90;100.00;96806.25;5088380;28;20028;-48
2022/05/08 02:23:46;;;;;;;24.80;20.63;;;;;;;15.06;100.00;96810.75;5103989;28;20067;-46
2022/05/08 02:26:15;;;;;;;25.15;20.48;;;;;;;15.11;100.00;96805.78;5106101;28;20043;-47
2022/05/08 02:28:43;;;;;;;26.10;20.88;;;;;;;15.05;100.00;96802.94;5103575;28;20064;-45
2022/05/08 02:31:13;;;;;;;25.80;21.10;;;;;;;15.08;100.00;96802.63;5104663;28;20393;-50
2022/05/08 02:33:42;;;;;;;30.25;22.70;;;;;;;15.07;100.00;96803.59;5106422;28;20451;-48
2022/05/08 02:36:10;;;;;;;29.55;23.70;;;;;;;15.11;100.00;96805.78;5103566;28;20537;-46
2022/05/08 02:38:39;;;;;;;31.52;25.20;;;;;;;14.87;100.00;96797.78;5104784;28;20559;-48
2022/05/08 02:41:07;;;;;;;29.45;24.02;;;;;;;14.88;100.00;96804.75;5103491;28;20066;-50
2022/05/08 02:43:36;;;;;;;29.23;24.58;;;;;;;14.79;100.00;96800.41;5107497;27;20526;-51
2022/05/08 02:46:04;;;;;;;29.83;23.60;;;;;;;14.78;100.00;96798.75;5107432;28;20474;-49
2022/05/08 02:48:34;;;;;;;30.35;22.70;;;;;;;15.02;100.00;96801.44;5111604;27;20047;-46
2022/05/08 02:51:05;;;;;;;34.58;24.95;;;;;;;15.01;100.00;96802.44;5106191;27;20067;-46
2022/05/08 02:53:34;;;;;;;30.10;23.88;;;;;;;14.99;100.00;96803.59;5106536;28;20153;-46
2022/05/08 02:58:47;;;;;;;29.05;23.40;;;;;;;14.98;100.00;96799.28;5106073;28;20067;-48
2022/05/08 03:01:16;;;;;;;28.08;23.05;;;;;;;14.92;100.00;96800.75;5108336;27;20518;-49
2022/05/08 03:03:46;;;;;;;29.65;22.40;;;;;;;15.03;100.00;96802.28;5107414;27;20087;-48
2022/05/08 03:06:14;;;;;;;30.40;23.10;;;;;;;15.08;100.00;96798.13;5108359;27;20082;-53
2022/05/08 03:08:42;;;;;;;28.70;22.80;;;;;;;15.08;100.00;96794.66;5106409;27;20064;-52
2022/05/08 03:11:29;;;;;;;28.95;23.27;;;;;;;15.07;100.00;96796.50;5109071;27;20059;-46
2022/05/08 03:13:58;;;;;;;28.98;23.58;;;;;;;14.98;100.00;96793.97;5106659;28;20064;-46
2022/05/08 03:16:28;;;;;;;28.25;22.83;;;;;;;15.10;100.00;96795.31;5106304;28;20682;-49
2022/05/08 03:18:58;;;;;;;27.77;22.08;;;;;;;14.82;100.00;96795.59;5107451;27;20525;-53
2022/05/08 03:21:26;;;;;;;29.10;23.13;;;;;;;14.88;100.00;96800.25;5108654;27;20445;-52
2022/05/08 03:23:54;;;;;;;29.23;23.48;;;;;;;15.00;100.00;96794.63;5107408;27;20060;-47
2022/05/08 03:26:24;;;;;;;28.52;22.95;;;;;;;15.01;100.00;96796.31;5103764;27;20071;-48
2022/05/08 03:28:52;;;;;;;28.13;23.83;;;;;;;14.82;100.00;96797.41;5104262;27;20133;-49
2022/05/08 03:31:21;;;;;;;27.67;22.65;;;;;;;15.03;100.00;96796.97;5102036;27;20086;-53
2022/05/08 03:33:49;;;;;;;29.17;24.00;;;;;;;15.13;100.00;96801.13;5108627;27;20082;-49
2022/05/08 03:36:19;;;;;;;30.45;23.80;;;;;;;15.21;100.00;96797.66;5106313;27;20060;-51
2022/05/08 03:38:47;;;;;;;29.17;24.75;;;;;;;15.13;100.00;96792.31;5104594;28;20753;-50
2022/05/08 03:41:16;;;;;;;29.88;24.05;;;;;;;15.09;100.00;96801.63;5107220;27;20066;-53
2022/05/08 03:43:46;;;;;;;29.13;24.17;;;;;;;15.10;100.00;96803.28;5105319;27;20067;-52
2022/05/08 03:46:14;;;;;;;31.75;24.42;;;;;;;15.32;100.00;96794.66;5104942;27;20396;-52
2022/05/08 03:48:43;;;;;;;30.08;24.80;;;;;;;15.21;100.00;96800.31;5107166;27;20090;-50
2022/05/08 03:51:11;;;;;;;29.77;23.65;;;;;;;15.06;100.00;96801.94;5104137;27;20055;-47
2022/05/08 03:53:41;;;;;;;27.45;22.52;;;;;;;15.14;100.00;96801.94;5104940;27;20070;-47
2022/05/08 03:56:09;;;;;;;27.95;23.27;;;;;;;15.05;100.00;96801.13;5109395;27;20066;-45
2022/05/08 03:58:37;;;;;;;26.85;22.55;;;;;;;14.94;100.00;96804.09;5107074;27;20078;-47
2022/05/08 04:01:06;;;;;;;28.80;23.55;;;;;;;15.11;100.00;96804.97;5105066;28;20434;-50
2022/05/08 04:03:34;;;;;;;28.63;23.23;;;;;;;15.08;100.00;96803.44;5104661;27;20463;-47
2022/05/08 04:06:03;;;;;;;28.08;23.98;;;;;;;14.84;100.00;96809.56;5108391;27;20063;-50
2022/05/08 04:08:32;;;;;;;32.65;24.73;;;;;;;15.14;100.00;96802.81;5105019;27;20067;-49
2022/05/08 04:11:03;;;;;;;29.13;23.65;;;;;;;15.25;100.00;96804.31;5107084;27;20518;-46
2022/05/08 04:13:31;;;;;;;31.83;25.23;;;;;;;15.24;100.00;96801.78;5106848;27;20062;-51
2022/05/08 04:16:19;;;;;;;29.17;24.40;;;;;;;15.38;100.00;96801.13;5110159;27;20552;-49
2022/05/08 04:18:47;;;;;;;29.27;23.92;;;;;;;15.47;100.00;96805.44;5105253;28;20577;-51
2022/05/08 04:21:16;;;;;;;29.45;23.90;;;;;;;15.55;100.00;96801.94;5104114;28;20067;-53
2022/05/08 04:26:32;;;;;;;28.80;22.90;;;;;;;15.27;100.00;96818.22;5105492;28;20071;-49
2022/05/08 04:29:01;;;;;;;30.27;23.25;;;;;;;15.25;100.00;96814.94;5106726;27;20195;-53
2022/05/08 04:31:29;;;;;;;29.88;24.27;;;;;;;15.34;100.00;96810.44;5105955;28;20062;-49
2022/05/08 04:33:57;;;;;;;27.40;23.67;;;;;;;15.33;100.00;96812.25;5105848;27;20071;-47
2022/05/08 04:36:25;;;;;;;29.63;23.50;;;;;;;15.22;100.00;96812.59;5106147;27;20067;-47
2022/05/08 04:38:54;;;;;;;26.88;23.42;;;;;;;15.31;100.00;96811.63;5105074;27;20540;-45
2022/05/08 04:41:22;;;;;;;26.23;22.17;;;;;;;15.05;100.00;96818.88;5104566;27;20138;-49
2022/05/08 04:43:57;;;;;;;29.83;23.38;;;;;;;15.26;100.00;96818.41;5104929;27;20071;-47
2022/05/08 04:46:25;;;;;;;28.23;25.08;;;;;;;15.24;100.00;96815.06;5103623;27;20176;-49
2022/05/08 04:48:54;;;;;;;26.90;22.88;;;;;;;15.08;100.00;96827.34;5105414;27;20079;-50
2022/05/08 04:51:22;;;;;;;28.45;24.55;;;;;;;15.46;100.00;96824.25;5105270;27;20462;-49
2022/05/08 04:53:50;;;;;;;29.70;25.10;;;;;;;15.43;100.00;96825.38;5104972;27;20051;-47
2022/05/08 04:56:19;;;;;;;30.25;25.33;;;;;;;15.52;100.00;96826.22;5103849;27;20062;-49
2022/05/08 04:58:47;;;;;;;30.55;25.90;;;;;;;15.56;100.00;96823.06;5104520;28;20070;-48
2022/05/08 05:01:16;;;;;;;31.95;25.38;;;;;;;15.38;100.00;96825.03;5107103;27;20082;-49
2022/05/08 05:03:45;;;;;;;32.35;25.70;;;;;;;15.40;100.00;96837.19;5078938;28;20075;-46
2022/05/08 05:06:13;;;;;;;30.95;25.77;;;;;;;15.52;100.00;96831.53;5110931;27;20156;-49
2022/05/08 05:08:41;;;;;;;30.70;25.17;;;;;;;15.46;100.00;96841.00;5104515;27;20067;-45
2022/05/08 05:11:10;;;;;;;32.58;26.63;;;;;;;15.24;100.00;96839.81;5105411;27;20082;-47
2022/05/08 05:13:39;;;;;;;28.08;23.77;;;;;;;15.26;100.00;96845.81;5104858;27;20077;-48
2022/05/08 05:16:07;;;;;;;29.83;25.42;;;;;;;15.19;100.00;96842.97;5101752;28;20123;-48
2022/05/08 05:18:37;;;;;;;27.58;23.48;;;;;;;15.30;100.00;96841.81;5104798;27;20079;-45
2022/05/08 05:21:05;;;;;;;33.67;26.77;;;;;;;15.38;100.00;96843.66;5107566;27;20090;-52
2022/05/08 05:23:34;;;;;;;31.75;25.13;;;;;;;15.53;100.00;96846.50;5107484;27;20055;-51
2022/05/08 05:26:03;;;;;;;31.25;23.70;;;;;;;15.33;100.00;96848.63;5106359;27;20426;-46
2022/05/08 05:28:32;;;;;;;30.75;25.42;;;;;;;15.25;100.00;96853.97;5104278;27;20059;-54
2022/05/08 05:31:00;;;;;;;28.95;25.08;;;;;;;15.24;100.00;96850.44;5105330;27;20074;-52
2022/05/08 05:33:29;;;;;;;30.25;25.00;;;;;;;15.23;100.00;96858.59;5107939;27;20528;-52
2022/05/08 05:35:59;;;;;;;28.52;25.25;;;;;;;15.07;100.00;96868.22;5104877;27;20067;-45
2022/05/08 05:38:27;;;;;;;28.87;23.80;;;;;;;15.12;100.00;96854.41;5108073;27;20070;-45
2022/05/08 05:40:55;;;;;;;29.52;23.92;;;;;;;15.14;100.00;96857.72;5103558;27;20063;-47
2022/05/08 05:43:24;;;;;;;28.90;25.00;;;;;;;15.24;100.00;96866.38;5104592;27;20458;-50
2022/05/08 05:48:36;;;;;;;31.63;24.73;;;;;;;15.44;100.00;96853.63;5104476;27;20086;-49
2022/05/08 05:51:06;;;;;;;28.70;25.23;;;;;;;15.46;100.00;96864.09;5106173;27;20118;-45
2022/05/08 05:53:34;;;;;;;31.83;25.40;;;;;;;15.59;100.00;96859.97;5104616;28;21045;-47
2022/05/08 05:56:03;;;;;;;30.88;26.25;;;;;;;14.95;100.00;96867.66;5087058;28;20596;-51
2022/05/08 05:58:32;;;;;;;29.38;24.23;;;;;;;15.03;100.00;96863.34;5102481;27;20062;-52
2022/05/08 06:01:00;;;;;;;28.35;24.88;;;;;;;15.29;100.00;96863.25;5103671;27;20098;-48
2022/05/08 06:03:28;;;;;;;27.88;24.02;;;;;;;14.92;100.00;96873.28;5100985;28;20528;-48
2022/05/08 06:05:57;;;;;;;33.63;25.40;;;;;;;15.01;100.00;96873.34;5107832;27;20067;-45
2022/05/08 06:08:26;;;;;;;31.40;25.55;;;;;;;15.14;100.00;96869.22;5102455;27;20071;-50
2022/05/08 06:10:55;;;;;;;32.10;27.03;;;;;;;14.49;100.00;96875.09;5100657;28;20074;-47
2022/05/08 06:13:23;;;;;;;28.83;25.20;;;;;;;14.80;100.00;96873.78;5103326;28;20082;-47
2022/05/08 06:15:51;;;;;;;26.40;22.55;;;;;;;14.61;100.00;96883.63;5103078;28;20562;-49
2022/05/08 06:18:20;;;;;;;27.48;23.75;;;;;;;14.51;100.00;96895.38;5101623;28;20071;-46
2022/05/08 06:20:48;;;;;;;28.30;24.50;;;;;;;14.79;100.00;96888.84;5102156;28;20071;-46
2022/05/08 06:23:16;;;;;;;23.08;20.42;;;;;;;14.56;100.00;96896.56;5081270;28;20066;-50
2022/05/08 06:25:46;;;;;;;23.60;19.77;;;;;;;14.69;100.00;96894.31;5100160;28;20438;-50
2022/05/08 06:28:19;;;;;;;25.87;20.53;;;;;;;14.71;100.00;96887.00;5104219;28;20583;-47
2022/05/08 06:30:48;;;;;;;23.38;18.67;;;;;;;14.47;100.00;96892.16;5105248;28;20188;-48
2022/05/08 06:33:16;;;;;;;24.17;20.98;;;;;;;14.94;100.00;96889.91;5100769;28;20075;-45
2022/05/08 06:35:44;;;;;;;23.08;20.25;;;;;;;15.05;100.00;96888.78;5102844;28;20075;-50
2022/05/08 06:38:13;;;;;;;23.23;18.63;;;;;;;15.04;100.00;96881.81;5108470;28;20625;-47
2022/05/08 06:40:42;;;;;;;20.45;18.33;;;;;;;15.37;100.00;96872.06;5106207;28;20478;-50
2022/05/08 06:43:12;;;;;;;18.98;17.08;;;;;;;15.79;100.00;96867.59;5101171;28;20446;-45
2022/05/08 06:45:40;;;;;;;20.33;17.07;;;;;;;16.26;100.00;96872.22;5105103;28;20071;-50
2022/05/08 06:48:09;;;;;;;18.25;16.45;;;;;;;16.28;100.00;96868.38;5106801;28;20051;-47
2022/05/08 06:50:37;;;;;;;17.30;15.45;;;;;;;16.73;100.00;96871.41;5107661;28;20075;-47
2022/05/08 06:53:06;;;;;;;17.85;15.95;;;;;;;17.02;100.00;96870.78;5106653;28;20096;-48
2022/05/08 06:55:35;;;;;;;16.67;14.98;;;;;;;17.16;100.00;96877.19;5106129;28;20468;-45
2022/05/08 06:58:03;;;;;;;16.48;14.15;;;;;;;17.10;100.00;96873.38;5106459;28;20075;-47
2022/05/08 07:03:19;;;;;;;16.23;14.63;;;;;;;16.98;100.00;96880.97;5100327;28;20067;-49
2022/05/08 07:05:47;;;;;;;17.35;15.55;;;;;;;17.17;100.00;96884.19;5107984;28;20063;-47
2022/05/08 07:08:16;;;;;;;18.05;16.17;;;;;;;16.99;100.00;96877.28;5103184;28;20066;-47
2022/05/08 07:10:44;;;;;;;18.42;16.52;;;;;;;16.75;100.00;96886.22;5105364;28;20064;-46
2022/05/08 07:13:12;;;;;;;19.20;17.20;;;;;;;16.99;100.00;96881.78;5103131;28;20079;-47
2022/05/08 07:15:42;;;;;;;19.20;17.23;;;;;;;16.82;100.00;96892.50;5106476;28;20075;-46
2022/05/08 07:18:26;;;;;;;20.33;17.00;;;;;;;16.61;100.00;96887.72;5105758;28;20067;-48
2022/05/08 07:20:54;;;;;;;20.90;18.80;;;;;;;16.02;100.00;96900.50;5103969;28;20126;-52
2022/05/08 07:23:22;;;;;;;19.25;17.13;;;;;;;16.57;100.00;96897.06;5103160;28;20090;-49
2022/05/08 07:25:51;;;;;;;17.55;15.55;;;;;;;16.41;100.00;96893.63;5100357;28;20064;-49
2022/05/08 07:28:19;;;;;;;19.35;17.42;;;;;;;16.85;100.00;96894.00;5109035;27;20096;-46
2022/05/08 07:30:49;;;;;;;17.65;15.82;;;;;;;16.51;100.00;96896.94;5108422;27;20051;-53
2022/05/08 07:33:19;;;;;;;20.65;15.95;;;;;;;16.11;100.00;96896.03;5107216;27;20067;-47
2022/05/08 07:38:34;;;;;;;17.80;16.00;;;;;;;17.04;100.00;96906.09;5103720;27;20065;-50
2022/05/08 07:41:05;;;;;;;16.85;15.25;;;;;;;16.33;100.00;96903.28;5108758;27;20074;-47
2022/05/08 07:43:33;;;;;;;16.35;14.60;;;;;;;16.55;100.00;96907.09;5107315;27;20062;-48
2022/05/08 07:46:03;;;;;;;16.05;14.45;;;;;;;16.57;100.00;96905.06;5107454;27;20083;-48
2022/05/08 07:48:32;;;;;;;15.93;14.18;;;;;;;16.63;100.00;96905.41;5105339;27;20455;-51
2022/05/08 07:51:01;;;;;;;15.48;14.02;;;;;;;17.40;100.00;96895.69;5107729;27;20078;-48
2022/05/08 07:53:29;;;;;;;14.63;13.13;;;;;;;16.97;100.00;96897.13;5109933;27;20067;-49
2022/05/08 07:55:58;;;;;;;14.35;12.93;;;;;;;16.99;100.00;96903.09;5102265;28;20070;-46
2022/05/08 07:58:31;;;;;;;13.77;12.38;;;;;;;16.91;100.00;96903.97;5108392;27;20058;-46
2022/05/08 08:01:04;;;;;;;15.30;12.93;;;;;;;17.25;100.00;96910.81;5107854;27;20091;-47
2022/05/08 08:03:34;;;;;;;15.68;14.07;;;;;;;16.91;100.00;96917.28;5102151;28;20258;-48
2022/05/08 08:06:04;;;;;;;15.82;14.23;;;;;;;16.88;100.00;96919.47;5107420;27;20066;-47
2022/05/08 08:08:39;;;;;;;15.07;13.48;;;;;;;17.10;100.00;96918.69;5107442;27;20059;-46
2022/05/08 08:11:08;;;;;;;15.90;14.10;;;;;;;17.03;100.00;96917.72;5101533;27;20063;-47
2022/05/08 08:13:36;;;;;;;15.50;13.95;;;;;;;16.90;100.00;96928.13;5104348;28;20059;-45
2022/05/08 08:16:07;;;;;;;14.57;13.07;;;;;;;17.03;100.00;96921.25;5106348;27;20075;-52
2022/05/08 08:18:35;;;;;;;;;;;;;;;17.70;100.00;96917.19;5106327;28;20133;-50
2022/05/08 08:21:10;;;;;;;12.48;11.18;;;;;;;17.99;100.00;96911.13;5104497;27;20095;-47
2022/05/08 08:23:39;;;;;;;13.88;11.75;;;;;;;19.01;100.00;96914.09;5107502;27;20055;-48
2022/05/08 08:26:08;;;;;;;14.95;12.77;;;;;;;19.10;100.00;96915.66;5105456;28;20066;-49
2022/05/08 08:28:36;;;;;;;13.13;11.25;;;;;;;19.27;100.00;96921.63;5108021;27;20063;-49
2022/05/08 08:31:07;;;;;;;11.48;10.27;;;;;;;18.56;100.00;96929.28;5103092;27;20114;-49
2022/05/08 08:33:38;;;;;;;11.25;10.10;;;;;;;18.63;100.00;96916.84;5104858;27;20059;-51
2022/05/08 08:36:06;;;;;;;;;;;;;;;18.91;100.00;96916.22;5104865;27;20059;-49
2022/05/08 08:38:35;;;;;;;10.63;9.63;;;;;;;19.24;100.00;96913.16;5104908;28;20026;-48
2022/05/08 08:41:04;;;;;;;10.93;9.85;;;;;;;19.39;100.00;96917.44;5105793;27;20058;-48
2022/05/08 08:47:42;;;;;;;11.13;10.10;;;;;;;19.12;100.00;96926.16;5099778;27;20067;-46
2022/05/08 08:49:13;;;;;;;12.35;10.68;;;;;;;19.18;100.00;96920.88;5072614;28;20491;-49
2022/05/08 08:51:42;;;;;;;10.85;9.75;;;;;;;19.61;100.00;96928.16;5105762;27;20078;-53
2022/05/08 08:54:11;;;;;;;11.88;10.60;;;;;;;19.03;100.00;96920.09;5105159;28;20497;-46
2022/05/08 08:56:39;;;;;;;11.32;10.20;;;;;;;18.92;100.00;96921.38;5105166;28;20074;-50
2022/05/08 08:59:09;;;;;;;12.00;10.88;;;;;;;18.57;100.00;96922.91;5108193;27;20484;-52
2022/05/08 09:01:41;;;;;;;11.95;10.68;;;;;;;19.26;100.00;96932.50;5107189;27;20066;-51
2022/05/08 09:04:10;;;;;;;12.73;11.52;;;;;;;19.32;100.00;96931.75;5103993;27;20071;-49
2022/05/08 09:06:39;;;;;;;11.32;10.32;;;;;;;18.96;100.00;96929.88;5108611;27;20070;-51
2022/05/08 09:09:27;;;;;;;11.50;10.40;;;;;;;18.34;100.00;96933.69;5109287;27;20066;-49
2022/05/08 09:11:57;;;;;;;11.63;10.52;;;;;;;18.65;100.00;96933.53;5114540;27;20067;-48
2022/05/08 09:14:30;;;;;;;11.90;10.80;;;;;;;19.30;100.00;96937.28;5107323;27;20074;-49
2022/05/08 09:17:00;;;;;;;12.25;11.00;;;;;;;19.30;100.00;96931.91;5107970;27;20059;-49
2022/05/08 09:19:34;;;;;;;12.15;10.95;;;;;;;19.57;100.00;96932.22;5105315;27;20539;-47
2022/05/08 09:22:03;;;;;;;11.88;10.68;;;;;;;19.50;100.00;96931.31;5103751;28;20075;-49
2022/05/08 09:24:31;;;;;;;12.80;11.32;;;;;;;19.92;100.00;96931.41;5103285;28;20420;-51
2022/05/08 09:27:10;;;;;;;12.13;10.80;;;;;;;19.77;100.00;96924.44;5102887;27;20465;-56
2022/05/08 09:29:38;;;;;;;12.38;11.18;;;;;;;19.80;100.00;96932.91;5104625;28;20055;-48
2022/05/08 09:32:36;;;;;;;11.40;10.30;;;;;;;20.64;100.00;96926.81;5105001;28;20067;-48
2022/05/08 09:35:05;;;;;;;10.82;9.82;;;;;;;20.24;100.00;96923.84;5102821;28;20064;-53
2022/05/08 09:37:34;;;;;;;10.80;9.65;;;;;;;20.24;100.00;96921.16;5106920;27;20058;-47
2022/05/08 09:40:18;;;;;;;11.32;10.23;;;;;;;19.70;100.00;96924.38;5123263;27;20075;-49
2022/05/08 09:42:47;;;;;;;11.05;10.05;;;;;;;20.40;100.00;96925.38;5112576;27;21522;-48
2022/05/08 09:45:16;;;;;;;10.73;9.73;;;;;;;20.61;100.00;96922.69;5110493;27;20075;-49
2022/05/08 09:47:47;;;;;;;10.93;9.93;;;;;;;21.31;100.00;96920.75;5105780;27;20051;-52
2022/05/08 09:50:17;;;;;;;10.98;9.95;;;;;;;19.47;100.00;96927.19;5106814;27;20071;-46
2022/05/08 09:52:46;;;;;;;;;;;;;;;20.15;100.00;96920.47;5103385;28;20504;-46
2022/05/08 09:55:14;;;;;;;11.05;10.05;;;;;;;19.65;100.00;96929.47;5108476;27;19959;-48
2022/05/08 09:57:43;;;;;;;9.88;8.98;;;;;;;19.44;100.00;96924.88;5116051;27;20481;-48
2022/05/08 10:00:16;;;;;;;10.63;9.63;;;;;;;19.56;100.00;96923.38;5107580;27;20518;-48
2022/05/08 10:02:46;;;;;;;10.10;9.30;;;;;;;19.17;100.00;96935.28;5110691;27;20082;-55
2022/05/08 10:05:16;;;;;;;10.07;9.00;;;;;;;20.10;100.00;96919.41;5104353;28;20067;-48
2022/05/08 10:07:44;;;;;;;10.43;9.43;;;;;;;19.70;100.00;96934.25;5108295;27;20048;-49
2022/05/08 10:15:48;;;;;;;10.73;9.63;;;;;;;18.29;100.00;96930.72;5106784;28;20446;-52
2022/05/08 10:18:27;;;;;;;11.38;10.10;;;;;;;18.00;100.00;96926.97;5106239;28;20059;-47
2022/05/08 10:21:06;;;;;;;11.10;10.00;;;;;;;18.16;100.00;96938.50;5103571;28;20059;-46
2022/05/08 10:23:37;;;;;;;12.55;11.35;;;;;;;17.31;100.00;96942.94;5113710;28;20431;-47
2022/05/08 10:26:16;;;;;;;11.40;10.30;;;;;;;17.40;100.00;96943.69;5121618;28;20059;-49
2022/05/08 10:29:12;;;;;;;12.60;11.30;;;;;;;17.88;100.00;96940.91;5108904;28;20080;-48
2022/05/08 10:31:44;;;;;;;12.23;10.93;;;;;;;18.07;100.00;96936.94;5104171;28;20057;-47
2022/05/08 10:34:15;;;;;;;11.70;10.57;;;;;;;18.86;100.00;96932.00;5107299;28;20071;-46
2022/05/08 10:37:21;;;;;;;11.65;10.52;;;;;;;20.04;100.00;96921.00;5108807;28;20094;-50
2022/05/08 10:39:51;;;;;;;9.57;8.68;;;;;;;19.43;100.00;96928.56;5102971;28;20472;-49
2022/05/08 10:42:45;;;;;;;9.10;8.10;;;;;;;19.36;100.00;96930.34;5105651;28;20072;-47
2022/05/08 10:45:40;;;;;;;8.05;7.20;;;;;;;19.72;100.00;96933.06;5102782;28;20451;-47
2022/05/08 10:48:10;;;;;;;9.57;8.75;;;;;;;19.56;100.00;96931.41;5114586;28;20058;-48
2022/05/08 10:50:42;;;;;;;9.98;8.82;;;;;;;19.60;100.00;96935.34;5115638;28;20066;-47
2022/05/08 10:53:25;;;;;;;9.18;8.18;;;;;;;19.34;100.00;96937.72;5120259;28;20110;-48
2022/05/08 10:55:59;;;;;;;10.38;7.65;;;;;;;18.89;100.00;96934.28;5121256;28;20705;-47
2022/05/08 10:58:27;;;;;;;8.75;7.85;;;;;;;20.33;100.00;96919.16;5114391;28;20406;-49
2022/05/08 11:00:57;;;;;;;7.72;6.95;;;;;;;19.38;100.00;96928.34;5115300;27;20090;-48
2022/05/08 11:03:26;;;;;;;8.60;7.32;;;;;;;20.08;100.00;96930.28;5122307;27;20071;-48
2022/05/08 11:05:56;;;;;;;8.73;7.88;;;;;;;20.19;100.00;96926.25;5115391;27;20066;-52
2022/05/08 11:08:27;;;;;;;9.27;8.40;;;;;;;20.86;100.00;96925.72;5106814;27;20062;-49
2022/05/08 11:11:03;;;;;;;10.35;9.45;;;;;;;20.62;100.00;96929.69;5109392;27;20059;-46
2022/05/08 11:13:39;;;;;;;10.35;9.35;;;;;;;20.77;100.00;96918.03;5106839;28;20074;-52
2022/05/08 11:16:07;;;;;;;9.50;8.68;;;;;;;21.07;100.00;96929.34;5115065;27;20081;-48
2022/05/08 11:18:35;;;;;;;10.23;9.18;;;;;;;21.18;100.00;96918.03;5112455;27;20075;-47
2022/05/08 11:21:08;;;;;;;10.55;9.55;;;;;;;20.33;100.00;96917.28;5109769;27;20073;-47
2022/05/08 11:23:40;;;;;;;10.50;9.50;;;;;;;19.25;100.00;96914.81;5107837;27;20056;-46
2022/05/08 11:26:10;;;;;;;9.95;9.02;;;;;;;20.06;100.00;96916.28;5107357;27;20063;-46
2022/05/08 11:28:47;;;;;;;10.30;9.07;;;;;;;19.87;100.00;96922.28;5114654;27;20055;-49
2022/05/08 11:31:16;;;;;;;10.20;9.25;;;;;;;19.29;100.00;96919.56;5104955;27;20079;-52
2022/05/08 11:36:34;;;;;;;9.57;8.60;;;;;;;19.11;100.00;96922.66;5108855;28;20419;-47
2022/05/08 11:39:04;;;;;;;9.95;8.68;;;;;;;18.78;100.00;96926.75;5106047;27;20059;-51
2022/05/08 11:41:35;;;;;;;10.00;9.10;;;;;;;19.85;100.00;96916.28;5110638;27;20463;-53
2022/05/08 11:44:15;;;;;;;10.02;9.02;;;;;;;19.57;100.00;96932.22;5107964;27;20493;-50
2022/05/08 11:46:45;;;;;;;10.02;9.00;;;;;;;20.22;100.00;96927.72;4978913;27;20074;-47
2022/05/08 11:49:14;;;;;;;9.38;8.48;;;;;;;21.05;100.00;96918.78;5037517;28;20140;-49
2022/05/08 11:51:45;;;;;;;10.05;8.35;;;;;;;20.96;100.00;96924.53;5045907;28;20080;-48